createdAt,value
2023-05-03T00:00:18.958Z,943.35
2023-05-03T00:01:19.893Z,943.36
2023-05-03T00:02:20.484Z,943.39
2023-05-03T00:03:21.345Z,943.35
2023-05-03T00:04:21.592Z,943.34
2023-05-03T00:05:22.494Z,943.37
2023-05-03T00:06:22.746Z,943.37
2023-05-03T00:07:23.155Z,943.38
2023-05-03T00:08:23.939Z,943.34
2023-05-03T00:09:24.634Z,943.35
2023-05-03T00:10:25.429Z,943.36
2023-05-03T00:11:26.129Z,943.36
2023-05-03T00:12:26.239Z,943.34
2023-05-03T00:13:27.208Z,943.37
2023-05-03T00:14:27.770Z,943.33
2023-05-03T00:15:28.100Z,943.35
2023-05-03T00:16:28.707Z,943.33
2023-05-03T00:17:29.472Z,943.32
2023-05-03T00:18:30.325Z,943.34
2023-05-03T00:19:31.641Z,943.37
2023-05-03T00:20:30.835Z,943.33
2023-05-03T00:21:31.163Z,943.3
2023-05-03T00:22:32.103Z,943.29
2023-05-03T00:23:32.783Z,943.32
2023-05-03T00:24:33.382Z,943.3
2023-05-03T00:25:34.169Z,943.26
2023-05-03T00:26:34.643Z,943.27
2023-05-03T00:27:35.173Z,943.27
2023-05-03T00:28:36.142Z,943.25
2023-05-03T00:29:36.861Z,943.26
2023-05-03T00:30:37.568Z,943.21
2023-05-03T00:31:38.598Z,943.25
2023-05-03T00:32:39.117Z,943.26
2023-05-03T00:33:39.338Z,943.3
2023-05-03T00:34:40.388Z,943.24
2023-05-03T00:35:40.718Z,943.26
2023-05-03T00:36:41.184Z,943.25
2023-05-03T00:37:41.942Z,943.21
2023-05-03T00:38:42.452Z,943.27
2023-05-03T00:39:43.155Z,943.27
2023-05-03T00:40:43.919Z,943.23
2023-05-03T00:41:44.468Z,943.24
2023-05-03T00:42:44.966Z,943.21
2023-05-03T00:43:45.338Z,943.21
2023-05-03T00:44:45.965Z,943.21
2023-05-03T00:45:46.944Z,943.21
2023-05-03T00:46:47.621Z,943.22
2023-05-03T00:47:48.182Z,943.14
2023-05-03T00:48:48.395Z,943.17
2023-05-03T00:49:49.333Z,943.15
2023-05-03T00:50:49.640Z,943.18
2023-05-03T00:51:49.919Z,943.15
2023-05-03T00:52:50.277Z,943.17
2023-05-03T00:53:50.982Z,943.18
2023-05-03T00:54:51.551Z,943.19
2023-05-03T00:55:52.572Z,943.22
2023-05-03T00:56:53.531Z,943.19
2023-05-03T00:57:54.623Z,943.22
2023-05-03T00:58:55.364Z,943.2
2023-05-03T00:59:55.903Z,943.24
2023-05-03T01:00:56.763Z,943.23
2023-05-03T01:01:57.608Z,943.21
2023-05-03T01:02:58.026Z,943.2
2023-05-03T01:03:58.394Z,943.23
2023-05-03T01:04:58.939Z,943.19
2023-05-03T01:05:59.446Z,943.24
2023-05-03T01:06:59.802Z,943.21
2023-05-03T01:08:00.919Z,943.25
2023-05-03T01:09:01.815Z,943.23
2023-05-03T01:10:02.298Z,943.23
2023-05-03T01:11:02.293Z,943.28
2023-05-03T01:12:03.208Z,943.26
2023-05-03T01:13:03.933Z,943.29
2023-05-03T01:14:04.883Z,943.27
2023-05-03T01:15:05.332Z,943.28
2023-05-03T01:16:06.304Z,943.26
2023-05-03T01:17:06.892Z,943.29
2023-05-03T01:18:07.644Z,943.27
2023-05-03T01:19:07.787Z,943.22
2023-05-03T01:20:08.489Z,943.2
2023-05-03T01:21:09.391Z,943.23
2023-05-03T01:22:10.309Z,943.23
2023-05-03T01:23:11.279Z,943.22
2023-05-03T01:24:11.974Z,943.22
2023-05-03T01:25:12.427Z,943.18
2023-05-03T01:26:12.915Z,943.22
2023-05-03T01:27:13.630Z,943.19
2023-05-03T01:28:14.331Z,943.21
2023-05-03T01:29:15.307Z,943.16
2023-05-03T01:30:15.995Z,943.2
2023-05-03T01:31:16.322Z,943.19
2023-05-03T01:32:17.262Z,943.19
2023-05-03T01:33:17.636Z,943.22
2023-05-03T01:34:18.157Z,943.25
2023-05-03T01:35:18.765Z,943.22
2023-05-03T01:36:19.048Z,943.19
2023-05-03T01:37:19.767Z,943.21
2023-05-03T01:38:20.731Z,943.27
2023-05-03T01:39:21.431Z,943.22
2023-05-03T01:40:21.928Z,943.26
2023-05-03T01:41:22.804Z,943.22
2023-05-03T01:42:22.946Z,943.27
2023-05-03T01:43:23.452Z,943.27
2023-05-03T01:44:24.400Z,943.23
2023-05-03T01:45:24.805Z,943.24
2023-05-03T01:46:25.878Z,943.25
2023-05-03T01:47:26.180Z,943.21
2023-05-03T01:48:26.874Z,943.19
2023-05-03T01:49:27.226Z,943.2
2023-05-03T01:50:27.711Z,943.21
2023-05-03T01:51:28.592Z,943.16
2023-05-03T01:52:29.070Z,943.21
2023-05-03T01:53:29.198Z,943.22
2023-05-03T01:54:30.092Z,943.16
2023-05-03T01:55:30.341Z,943.19
2023-05-03T01:56:31.246Z,943.19
2023-05-03T01:57:32.156Z,943.18
2023-05-03T01:58:32.660Z,943.23
2023-05-03T01:59:33.656Z,943.21
2023-05-03T02:00:34.169Z,943.23
2023-05-03T02:01:34.742Z,943.26
2023-05-03T02:02:34.797Z,943.24
2023-05-03T02:03:35.757Z,943.22
2023-05-03T02:04:36.577Z,943.23
2023-05-03T02:05:37.376Z,943.28
2023-05-03T02:06:38.323Z,943.25
2023-05-03T02:07:39.184Z,943.3
2023-05-03T02:08:39.917Z,943.27
2023-05-03T02:09:40.843Z,943.26
2023-05-03T02:10:41.126Z,943.26
2023-05-03T02:11:41.878Z,943.27
2023-05-03T02:12:42.182Z,943.31
2023-05-03T02:13:42.289Z,943.27
2023-05-03T02:14:42.605Z,943.32
2023-05-03T02:15:42.835Z,943.32
2023-05-03T02:16:43.682Z,943.29
2023-05-03T02:17:44.080Z,943.28
2023-05-03T02:18:44.239Z,943.33
2023-05-03T02:19:45.176Z,943.3
2023-05-03T02:20:46.289Z,943.32
2023-05-03T02:21:47.239Z,943.36
2023-05-03T02:22:47.931Z,943.34
2023-05-03T02:23:48.672Z,943.32
2023-05-03T02:24:48.878Z,943.35
2023-05-03T02:25:49.312Z,943.34
2023-05-03T02:26:50.211Z,943.34
2023-05-03T02:27:50.902Z,943.36
2023-05-03T02:28:51.409Z,943.35
2023-05-03T02:29:51.560Z,943.34
2023-05-03T02:30:52.517Z,943.37
2023-05-03T02:31:53.558Z,943.36
2023-05-03T02:32:54.518Z,943.36
2023-05-03T02:33:55.293Z,943.35
2023-05-03T02:34:56.014Z,943.32
2023-05-03T02:35:56.834Z,943.31
2023-05-03T02:36:57.146Z,943.31
2023-05-03T02:37:57.871Z,943.31
2023-05-03T02:38:58.493Z,943.33
2023-05-03T02:39:59.390Z,943.31
2023-05-03T02:40:59.886Z,943.3
2023-05-03T02:42:00.159Z,943.3
2023-05-03T02:43:00.716Z,943.28
2023-05-03T02:44:01.222Z,943.27
2023-05-03T02:45:01.974Z,943.29
2023-05-03T02:46:02.460Z,943.26
2023-05-03T02:47:03.140Z,943.29
2023-05-03T02:48:03.663Z,943.25
2023-05-03T02:49:04.307Z,943.24
2023-05-03T02:50:05.128Z,943.25
2023-05-03T02:51:05.809Z,943.24
2023-05-03T02:52:06.353Z,943.2
2023-05-03T02:53:06.926Z,943.22
2023-05-03T02:54:07.877Z,943.23
2023-05-03T02:55:08.382Z,943.22
2023-05-03T02:56:08.815Z,943.2
2023-05-03T02:57:09.760Z,943.22
2023-05-03T02:58:10.542Z,943.2
2023-05-03T02:59:10.659Z,943.24
2023-05-03T03:00:11.214Z,943.22
2023-05-03T03:01:11.361Z,943.24
2023-05-03T03:02:12.381Z,943.26
2023-05-03T03:03:13.198Z,943.26
2023-05-03T03:04:13.604Z,943.27
2023-05-03T03:05:14.523Z,943.28
2023-05-03T03:06:15.027Z,943.3
2023-05-03T03:07:15.345Z,943.34
2023-05-03T03:08:16.047Z,943.33
2023-05-03T03:09:16.431Z,943.33
2023-05-03T03:10:17.145Z,943.31
2023-05-03T03:11:17.815Z,943.37
2023-05-03T03:12:18.104Z,943.32
2023-05-03T03:13:18.816Z,943.3
2023-05-03T03:14:19.316Z,943.29
2023-05-03T03:15:20.233Z,943.28
2023-05-03T03:16:20.535Z,943.28
2023-05-03T03:17:20.715Z,943.3
2023-05-03T03:18:21.358Z,943.3
2023-05-03T03:19:22.050Z,943.31
2023-05-03T03:20:22.979Z,943.3
2023-05-03T03:21:23.292Z,943.29
2023-05-03T03:22:23.991Z,943.32
2023-05-03T03:23:24.458Z,943.33
2023-05-03T03:24:25.004Z,943.32
2023-05-03T03:25:25.500Z,943.34
2023-05-03T03:26:26.308Z,943.32
2023-05-03T03:27:27.220Z,943.33
2023-05-03T03:28:27.912Z,943.33
2023-05-03T03:29:28.614Z,943.3
2023-05-03T03:30:29.644Z,943.33
2023-05-03T03:31:30.370Z,943.3
2023-05-03T03:32:30.488Z,943.3
2023-05-03T03:33:30.994Z,943.32
2023-05-03T03:34:31.689Z,943.28
2023-05-03T03:35:32.285Z,943.29
2023-05-03T03:36:32.528Z,943.26
2023-05-03T03:37:32.638Z,943.26
2023-05-03T03:38:33.127Z,943.24
2023-05-03T03:39:33.710Z,943.26
2023-05-03T03:40:34.416Z,943.26
2023-05-03T03:41:34.931Z,943.23
2023-05-03T03:42:35.431Z,943.23
2023-05-03T03:43:36.117Z,943.27
2023-05-03T03:44:36.815Z,943.27
2023-05-03T03:45:37.534Z,943.24
2023-05-03T03:46:38.209Z,943.23
2023-05-03T03:47:38.769Z,943.25
2023-05-03T03:48:39.573Z,943.22
2023-05-03T03:49:40.061Z,943.26
2023-05-03T03:50:40.750Z,943.24
2023-05-03T03:51:41.660Z,943.22
2023-05-03T03:52:42.599Z,943.26
2023-05-03T03:53:43.148Z,943.21
2023-05-03T03:54:43.883Z,943.22
2023-05-03T03:55:44.373Z,943.22
2023-05-03T03:56:44.540Z,943.21
2023-05-03T03:57:44.864Z,943.17
2023-05-03T03:58:45.590Z,943.17
2023-05-03T03:59:46.524Z,943.22
2023-05-03T04:00:46.787Z,943.18
2023-05-03T04:01:47.503Z,943.22
2023-05-03T04:02:48.087Z,943.22
2023-05-03T04:03:48.943Z,943.2
2023-05-03T04:04:49.245Z,943.24
2023-05-03T04:05:49.952Z,943.24
2023-05-03T04:06:50.976Z,943.25
2023-05-03T04:07:51.412Z,943.28
2023-05-03T04:08:51.715Z,943.24
2023-05-03T04:09:52.709Z,943.26
2023-05-03T04:10:53.574Z,943.23
2023-05-03T04:11:54.271Z,943.24
2023-05-03T04:12:54.909Z,943.23
2023-05-03T04:13:55.607Z,943.19
2023-05-03T04:14:56.329Z,943.21
2023-05-03T04:15:57.329Z,943.25
2023-05-03T04:16:57.828Z,943.21
2023-05-03T04:17:58.800Z,943.23
2023-05-03T04:18:58.909Z,943.22
2023-05-03T04:19:59.243Z,943.25
2023-05-03T04:20:59.446Z,943.26
2023-05-03T04:22:00.166Z,943.26
2023-05-03T04:23:00.876Z,943.26
2023-05-03T04:24:01.768Z,943.24
2023-05-03T04:25:02.804Z,943.26
2023-05-03T04:26:04.800Z,943.25
2023-05-03T04:27:12.371Z,943.23
2023-05-03T04:28:12.890Z,943.27
2023-05-03T04:29:13.387Z,943.25
2023-05-03T04:30:14.311Z,943.3
2023-05-03T04:31:15.304Z,943.27
2023-05-03T04:32:16.188Z,943.23
2023-05-03T04:33:16.742Z,943.25
2023-05-03T04:34:17.267Z,943.29
2023-05-03T04:35:18.166Z,943.28
2023-05-03T04:36:18.696Z,943.22
2023-05-03T04:37:18.845Z,943.26
2023-05-03T04:38:19.383Z,943.27
2023-05-03T04:39:19.870Z,943.26
2023-05-03T04:40:20.443Z,943.27
2023-05-03T04:41:21.098Z,943.29
2023-05-03T04:42:21.528Z,943.35
2023-05-03T04:43:22.274Z,943.32
2023-05-03T04:44:22.989Z,943.32
2023-05-03T04:45:23.482Z,943.36
2023-05-03T04:46:24.279Z,943.35
2023-05-03T04:47:25.199Z,943.32
2023-05-03T04:48:25.737Z,943.34
2023-05-03T04:49:26.052Z,943.35
2023-05-03T04:50:26.190Z,943.36
2023-05-03T04:51:26.322Z,943.37
2023-05-03T04:52:27.017Z,943.38
2023-05-03T04:53:27.752Z,943.39
2023-05-03T04:54:28.660Z,943.38
2023-05-03T04:55:28.824Z,943.39
2023-05-03T04:56:29.349Z,943.38
2023-05-03T04:57:29.568Z,943.44
2023-05-03T04:58:30.284Z,943.46
2023-05-03T04:59:30.822Z,943.4
2023-05-03T05:00:31.125Z,943.48
2023-05-03T05:01:32.097Z,943.46
2023-05-03T05:02:32.601Z,943.48
2023-05-03T05:03:33.516Z,943.49
2023-05-03T05:04:33.728Z,943.46
2023-05-03T05:05:33.907Z,943.48
2023-05-03T05:06:34.322Z,943.54
2023-05-03T05:07:34.667Z,943.56
2023-05-03T05:08:35.148Z,943.56
2023-05-03T05:09:35.454Z,943.53
2023-05-03T05:10:36.379Z,943.55
2023-05-03T05:11:37.272Z,943.55
2023-05-03T05:12:37.823Z,943.55
2023-05-03T05:13:38.240Z,943.56
2023-05-03T05:14:38.311Z,943.55
2023-05-03T05:15:38.837Z,943.55
2023-05-03T05:16:39.831Z,943.56
2023-05-03T05:17:41.115Z,943.58
2023-05-03T05:18:41.642Z,943.58
2023-05-03T05:19:42.201Z,943.54
2023-05-03T05:20:42.707Z,943.56
2023-05-03T05:21:43.381Z,943.6
2023-05-03T05:22:44.062Z,943.59
2023-05-03T05:23:44.563Z,943.61
2023-05-03T05:24:44.662Z,943.61
2023-05-03T05:25:45.186Z,943.67
2023-05-03T05:26:45.296Z,943.63
2023-05-03T05:27:45.520Z,943.63
2023-05-03T05:28:45.805Z,943.62
2023-05-03T05:29:46.506Z,943.57
2023-05-03T05:30:47.276Z,943.61
2023-05-03T05:31:48.336Z,943.6
2023-05-03T05:32:48.532Z,943.61
2023-05-03T05:33:49.386Z,943.61
2023-05-03T05:34:50.131Z,943.65
2023-05-03T05:35:51.032Z,943.64
2023-05-03T05:36:51.438Z,943.69
2023-05-03T05:37:52.425Z,943.66
2023-05-03T05:38:52.947Z,943.65
2023-05-03T05:39:53.864Z,943.68
2023-05-03T05:40:54.064Z,943.69
2023-05-03T05:41:54.462Z,943.65
2023-05-03T05:42:55.409Z,943.64
2023-05-03T05:43:56.141Z,943.64
2023-05-03T05:44:56.868Z,943.68
2023-05-03T05:45:56.974Z,943.68
2023-05-03T05:46:57.962Z,943.7
2023-05-03T05:47:59.051Z,943.68
2023-05-03T05:48:59.985Z,943.67
2023-05-03T05:50:00.660Z,943.66
2023-05-03T05:51:00.670Z,943.67
2023-05-03T05:52:01.181Z,943.65
2023-05-03T05:53:01.905Z,943.64
2023-05-03T05:54:02.633Z,943.64
2023-05-03T05:55:03.527Z,943.67
2023-05-03T05:56:04.068Z,943.71
2023-05-03T05:57:04.762Z,943.69
2023-05-03T05:58:05.214Z,943.73
2023-05-03T05:59:05.715Z,943.72
2023-05-03T06:00:06.208Z,943.74
2023-05-03T06:01:06.384Z,943.73
2023-05-03T06:02:07.139Z,943.73
2023-05-03T06:03:07.409Z,943.73
2023-05-03T06:04:07.670Z,943.73
2023-05-03T06:05:08.622Z,943.75
2023-05-03T06:06:09.438Z,943.74
2023-05-03T06:07:09.553Z,943.77
2023-05-03T06:08:10.014Z,943.78
2023-05-03T06:09:23.242Z,943.77
2023-05-03T06:10:11.121Z,943.79
2023-05-03T06:11:12.143Z,943.77
2023-05-03T06:12:12.852Z,943.79
2023-05-03T06:13:13.962Z,943.79
2023-05-03T06:14:14.305Z,943.73
2023-05-03T06:15:14.820Z,943.8
2023-05-03T06:16:15.760Z,943.79
2023-05-03T06:17:15.993Z,943.76
2023-05-03T06:18:16.876Z,943.79
2023-05-03T06:19:17.438Z,943.83
2023-05-03T06:20:17.936Z,943.83
2023-05-03T06:21:18.031Z,943.88
2023-05-03T06:22:18.964Z,943.81
2023-05-03T06:23:19.873Z,943.86
2023-05-03T06:24:20.557Z,943.88
2023-05-03T06:25:20.712Z,943.89
2023-05-03T06:26:21.686Z,943.89
2023-05-03T06:27:22.230Z,943.84
2023-05-03T06:28:23.148Z,943.86
2023-05-03T06:29:24.048Z,943.88
2023-05-03T06:30:24.553Z,943.85
2023-05-03T06:31:25.026Z,943.88
2023-05-03T06:32:25.347Z,943.86
2023-05-03T06:33:26.293Z,943.86
2023-05-03T06:34:27.192Z,943.88
2023-05-03T06:35:27.894Z,943.84
2023-05-03T06:36:28.620Z,943.84
2023-05-03T06:37:28.776Z,943.86
2023-05-03T06:38:29.213Z,943.83
2023-05-03T06:39:29.688Z,943.86
2023-05-03T06:40:30.094Z,943.87
2023-05-03T06:41:30.517Z,943.89
2023-05-03T06:42:31.021Z,943.9
2023-05-03T06:43:31.762Z,943.91
2023-05-03T06:44:32.470Z,943.91
2023-05-03T06:45:33.394Z,943.87
2023-05-03T06:46:33.934Z,943.91
2023-05-03T06:47:34.369Z,943.93
2023-05-03T06:48:35.230Z,943.98
2023-05-03T06:49:35.679Z,943.95
2023-05-03T06:50:36.401Z,943.93
2023-05-03T06:51:37.326Z,943.89
2023-05-03T06:52:38.255Z,943.94
2023-05-03T06:53:38.957Z,943.97
2023-05-03T06:54:39.592Z,943.9
2023-05-03T06:55:40.320Z,944.06
2023-05-03T06:56:41.339Z,944.01
2023-05-03T06:57:42.373Z,943.95
2023-05-03T06:58:42.948Z,943.96
2023-05-03T06:59:43.633Z,944.02
2023-05-03T07:00:44.561Z,944.09
2023-05-03T07:01:45.407Z,944.08
2023-05-03T07:02:46.193Z,944.13
2023-05-03T07:03:47.130Z,944.19
2023-05-03T07:04:48.010Z,944.27
2023-05-03T07:05:48.297Z,944.24
2023-05-03T07:07:49.258Z,944.17
2023-05-03T07:08:50.320Z,944.25
2023-05-03T07:09:50.874Z,944.18
2023-05-03T07:10:51.410Z,944.15
2023-05-03T07:11:52.403Z,944.1
2023-05-03T07:12:52.935Z,944.18
2023-05-03T07:13:53.089Z,944.15
2023-05-03T07:14:53.805Z,944.08
2023-05-03T07:15:54.632Z,944.09
2023-05-03T07:16:55.140Z,944.08
2023-05-03T07:17:55.275Z,944.05
2023-05-03T07:18:56.243Z,944.01
2023-05-03T07:19:56.370Z,944.06
2023-05-03T07:20:56.621Z,944.03
2023-05-03T07:21:57.291Z,944.01
2023-05-03T07:22:58.027Z,944.03
2023-05-03T07:23:58.943Z,944.04
2023-05-03T07:25:00.003Z,944.02
2023-05-03T07:26:00.173Z,944
2023-05-03T07:27:00.956Z,944.03
2023-05-03T07:28:01.882Z,944.02
2023-05-03T07:29:02.290Z,943.98
2023-05-03T07:30:03.501Z,943.94
2023-05-03T07:31:03.692Z,943.98
2023-05-03T07:32:04.520Z,943.96
2023-05-03T07:33:04.840Z,943.94
2023-05-03T07:34:05.336Z,943.96
2023-05-03T07:35:06.072Z,943.93
2023-05-03T07:36:06.812Z,943.9
2023-05-03T07:37:07.648Z,943.9
2023-05-03T07:38:08.425Z,943.88
2023-05-03T07:39:09.031Z,943.87
2023-05-03T07:40:09.330Z,943.87
2023-05-03T07:41:10.332Z,943.9
2023-05-03T07:42:11.150Z,943.85
2023-05-03T07:43:12.160Z,943.89
2023-05-03T07:44:12.890Z,943.86
2023-05-03T07:45:13.050Z,943.83
2023-05-03T07:46:14.065Z,943.86
2023-05-03T07:47:14.573Z,943.86
2023-05-03T07:48:14.898Z,943.86
2023-05-03T07:49:15.520Z,943.86
2023-05-03T07:50:16.265Z,943.83
2023-05-03T07:51:16.800Z,943.82
2023-05-03T07:52:17.354Z,943.87
2023-05-03T07:53:17.557Z,943.84
2023-05-03T07:54:18.278Z,943.82
2023-05-03T07:55:19.345Z,943.85
2023-05-03T07:56:19.925Z,943.84
2023-05-03T07:57:21.023Z,943.87
2023-05-03T07:58:28.468Z,943.85
2023-05-03T08:00:37.696Z,943.81
2023-05-03T08:01:38.600Z,943.85
2023-05-03T08:02:39.375Z,943.82
2023-05-03T08:03:40.326Z,943.84
2023-05-03T08:04:40.656Z,943.84
2023-05-03T08:05:41.324Z,943.86
2023-05-03T08:06:42.099Z,943.86
2023-05-03T08:07:42.400Z,943.86
2023-05-03T08:08:42.667Z,943.85
2023-05-03T08:09:43.585Z,943.84
2023-05-03T08:10:44.304Z,943.84
2023-05-03T08:11:45.343Z,943.86
2023-05-03T08:12:45.839Z,943.84
2023-05-03T08:13:46.598Z,943.83
2023-05-03T08:14:47.156Z,943.85
2023-05-03T08:15:47.764Z,943.82
2023-05-03T08:16:48.767Z,943.82
2023-05-03T08:17:49.803Z,943.88
2023-05-03T08:18:50.388Z,943.84
2023-05-03T08:19:51.017Z,943.81
2023-05-03T08:20:51.550Z,943.78
2023-05-03T08:21:52.289Z,943.9
2023-05-03T08:22:53.256Z,943.9
2023-05-03T08:23:53.635Z,943.9
2023-05-03T08:24:53.968Z,943.84
2023-05-03T08:25:54.413Z,943.83
2023-05-03T08:26:54.532Z,943.86
2023-05-03T08:27:54.984Z,943.84
2023-05-03T08:28:55.153Z,943.84
2023-05-03T08:29:56.165Z,943.82
2023-05-03T08:30:56.877Z,943.82
2023-05-03T08:31:57.936Z,943.86
2023-05-03T08:32:59.024Z,943.87
2023-05-03T08:33:59.311Z,943.87
2023-05-03T08:35:00.254Z,943.83
2023-05-03T08:36:00.442Z,943.87
2023-05-03T08:37:01.008Z,943.86
2023-05-03T08:38:01.115Z,943.84
2023-05-03T08:39:01.652Z,943.86
2023-05-03T08:40:02.400Z,943.78
2023-05-03T08:41:02.785Z,943.76
2023-05-03T08:42:03.602Z,943.76
2023-05-03T08:43:04.432Z,943.75
2023-05-03T08:44:05.163Z,943.8
2023-05-03T08:45:06.084Z,943.82
2023-05-03T08:46:07.018Z,943.78
2023-05-03T08:47:07.297Z,943.74
2023-05-03T08:48:08.090Z,943.73
2023-05-03T08:49:08.430Z,943.71
2023-05-03T08:50:08.706Z,943.7
2023-05-03T08:51:09.596Z,943.72
2023-05-03T08:52:10.339Z,943.69
2023-05-03T08:53:11.059Z,943.73
2023-05-03T08:54:11.771Z,943.68
2023-05-03T08:55:12.754Z,943.75
2023-05-03T08:56:13.329Z,943.67
2023-05-03T08:57:13.848Z,943.63
2023-05-03T08:58:14.154Z,943.7
2023-05-03T08:59:14.898Z,943.7
2023-05-03T09:00:15.097Z,943.78
2023-05-03T09:01:16.061Z,943.71
2023-05-03T09:02:16.342Z,943.7
2023-05-03T09:03:17.001Z,943.65
2023-05-03T09:04:18.137Z,943.7
2023-05-03T09:05:18.733Z,943.66
2023-05-03T09:06:18.897Z,943.67
2023-05-03T09:07:19.104Z,943.62
2023-05-03T09:08:20.037Z,943.65
2023-05-03T09:09:21.006Z,943.64
2023-05-03T09:10:21.865Z,943.64
2023-05-03T09:11:22.646Z,943.73
2023-05-03T09:12:22.933Z,943.67
2023-05-03T09:13:23.196Z,943.64
2023-05-03T09:14:24.133Z,943.61
2023-05-03T09:15:25.056Z,943.7
2023-05-03T09:16:25.507Z,943.72
2023-05-03T09:17:26.483Z,943.68
2023-05-03T09:18:27.335Z,943.71
2023-05-03T09:19:28.123Z,943.69
2023-05-03T09:20:28.413Z,943.69
2023-05-03T09:21:29.323Z,943.68
2023-05-03T09:22:29.435Z,943.68
2023-05-03T09:23:30.179Z,943.67
2023-05-03T09:24:30.378Z,943.64
2023-05-03T09:25:31.017Z,943.63
2023-05-03T09:26:31.534Z,943.65
2023-05-03T09:27:32.091Z,943.66
2023-05-03T09:28:32.992Z,943.63
2023-05-03T09:29:33.912Z,943.59
2023-05-03T09:30:34.891Z,943.57
2023-05-03T09:31:35.668Z,943.57
2023-05-03T09:32:35.933Z,943.6
2023-05-03T09:33:36.970Z,943.51
2023-05-03T09:34:37.962Z,943.55
2023-05-03T09:35:38.494Z,943.54
2023-05-03T09:36:39.219Z,943.51
2023-05-03T09:37:40.149Z,943.5
2023-05-03T09:38:41.197Z,943.54
2023-05-03T09:39:42.176Z,943.52
2023-05-03T09:40:42.778Z,943.5
2023-05-03T09:41:43.531Z,943.48
2023-05-03T09:42:44.100Z,943.44
2023-05-03T09:43:45.082Z,943.44
2023-05-03T09:44:46.023Z,943.44
2023-05-03T09:45:47.151Z,943.43
2023-05-03T09:46:47.492Z,943.44
2023-05-03T09:47:48.454Z,943.42
2023-05-03T09:49:49.685Z,943.44
2023-05-03T09:50:50.675Z,943.44
2023-05-03T09:51:51.479Z,943.45
2023-05-03T09:52:52.345Z,943.4
2023-05-03T09:53:53.075Z,943.41
2023-05-03T09:54:53.646Z,943.47
2023-05-03T09:55:53.989Z,943.44
2023-05-03T09:56:54.580Z,943.43
2023-05-03T09:57:55.122Z,943.44
2023-05-03T09:58:55.481Z,943.45
2023-05-03T09:59:56.197Z,943.52
2023-05-03T10:00:57.248Z,943.54
2023-05-03T10:01:58.277Z,943.45
2023-05-03T10:02:58.885Z,943.45
2023-05-03T10:03:59.828Z,943.54
2023-05-03T10:05:00.294Z,943.42
2023-05-03T10:06:00.775Z,943.41
2023-05-03T10:07:01.832Z,943.42
2023-05-03T10:08:02.095Z,943.42
2023-05-03T10:09:02.832Z,943.43
2023-05-03T10:10:03.793Z,943.44
2023-05-03T10:11:04.360Z,943.43
2023-05-03T10:12:05.339Z,943.39
2023-05-03T10:13:06.262Z,943.41
2023-05-03T10:14:07.026Z,943.35
2023-05-03T10:15:07.972Z,943.38
2023-05-03T10:16:08.558Z,943.37
2023-05-03T10:17:09.090Z,943.33
2023-05-03T10:18:09.806Z,943.28
2023-05-03T10:19:10.996Z,943.27
2023-05-03T10:20:11.014Z,943.31
2023-05-03T10:21:11.541Z,943.32
2023-05-03T10:22:12.032Z,943.39
2023-05-03T10:23:13.066Z,943.37
2023-05-03T10:24:13.325Z,943.36
2023-05-03T10:25:14.697Z,943.35
2023-05-03T10:26:13.844Z,943.38
2023-05-03T10:27:13.976Z,943.38
2023-05-03T10:28:14.925Z,943.27
2023-05-03T10:29:15.936Z,943.34
2023-05-03T10:30:16.857Z,943.31
2023-05-03T10:31:17.466Z,943.33
2023-05-03T10:32:18.221Z,943.31
2023-05-03T10:33:18.327Z,943.31
2023-05-03T10:34:19.019Z,943.29
2023-05-03T10:35:19.255Z,943.27
2023-05-03T10:36:20.268Z,943.26
2023-05-03T10:37:20.829Z,943.22
2023-05-03T10:38:21.744Z,943.22
2023-05-03T10:39:22.718Z,943.18
2023-05-03T10:40:23.497Z,943.2
2023-05-03T10:41:24.220Z,943.18
2023-05-03T10:42:24.738Z,943.2
2023-05-03T10:43:25.320Z,943.17
2023-05-03T10:44:26.034Z,943.17
2023-05-03T10:45:26.649Z,943.15
2023-05-03T10:46:27.528Z,943.23
2023-05-03T10:47:28.107Z,943.17
2023-05-03T10:48:28.445Z,943.18
2023-05-03T10:49:29.216Z,943.22
2023-05-03T10:50:30.291Z,943.25
2023-05-03T10:51:31.297Z,943.23
2023-05-03T10:52:31.785Z,943.19
2023-05-03T10:53:32.378Z,943.23
2023-05-03T10:54:32.904Z,943.15
2023-05-03T10:55:33.847Z,943.21
2023-05-03T10:56:34.359Z,943.2
2023-05-03T10:57:35.268Z,943.2
2023-05-03T10:58:36.029Z,943.24
2023-05-03T10:59:37.113Z,943.22
2023-05-03T11:00:38.058Z,943.17
2023-05-03T11:01:38.687Z,943.19
2023-05-03T11:02:39.655Z,943.21
2023-05-03T11:03:40.619Z,943.16
2023-05-03T11:04:41.066Z,943.16
2023-05-03T11:05:41.812Z,943.16
2023-05-03T11:06:41.915Z,943.17
2023-05-03T11:07:42.069Z,943.16
2023-05-03T11:08:42.252Z,943.16
2023-05-03T11:09:43.002Z,943.18
2023-05-03T11:10:44.058Z,943.18
2023-05-03T11:11:44.591Z,943.14
2023-05-03T11:12:45.470Z,943.11
2023-05-03T11:13:46.041Z,943.15
2023-05-03T11:14:47.116Z,943.16
2023-05-03T11:15:48.436Z,943.08
2023-05-03T11:16:48.329Z,943.06
2023-05-03T11:17:48.739Z,943.04
2023-05-03T11:18:49.330Z,943.09
2023-05-03T11:19:50.254Z,943.14
2023-05-03T11:20:51.038Z,943.08
2023-05-03T11:21:52.000Z,943.07
2023-05-03T11:22:52.921Z,943.07
2023-05-03T11:23:53.841Z,943.07
2023-05-03T11:24:54.010Z,943.05
2023-05-03T11:25:54.296Z,943.05
2023-05-03T11:26:54.847Z,943.05
2023-05-03T11:27:55.707Z,942.98
2023-05-03T11:28:56.633Z,943.04
2023-05-03T11:29:56.850Z,943
2023-05-03T11:30:57.819Z,943.02
2023-05-03T11:31:58.824Z,943.03
2023-05-03T11:32:59.061Z,942.98
2023-05-03T11:33:59.334Z,942.98
2023-05-03T11:35:00.059Z,942.99
2023-05-03T11:36:00.792Z,943.02
2023-05-03T11:37:00.989Z,943.01
2023-05-03T11:38:01.691Z,943.01
2023-05-03T11:39:02.479Z,943.05
2023-05-03T11:40:03.532Z,942.99
2023-05-03T11:41:03.653Z,943.02
2023-05-03T11:42:04.399Z,943.01
2023-05-03T11:43:05.336Z,943
2023-05-03T11:44:15.745Z,943.03
2023-05-03T11:45:07.374Z,943
2023-05-03T11:46:07.673Z,942.98
2023-05-03T11:47:08.682Z,942.95
2023-05-03T11:48:09.108Z,943.02
2023-05-03T11:49:09.476Z,942.97
2023-05-03T11:50:10.564Z,943.03
2023-05-03T11:51:11.616Z,943.07
2023-05-03T11:52:12.526Z,943.06
2023-05-03T11:53:12.659Z,943.02
2023-05-03T11:55:14.340Z,942.98
2023-05-03T11:56:15.023Z,943
2023-05-03T11:57:15.625Z,943.04
2023-05-03T11:58:16.004Z,943.04
2023-05-03T11:59:16.907Z,943.05
2023-05-03T12:00:17.083Z,943.01
2023-05-03T12:01:17.298Z,943.05
2023-05-03T12:02:17.974Z,942.98
2023-05-03T12:03:18.665Z,942.95
2023-05-03T12:04:19.678Z,942.95
2023-05-03T12:05:21.078Z,942.93
2023-05-03T12:06:21.799Z,942.92
2023-05-03T12:07:23.047Z,942.95
2023-05-03T12:08:22.227Z,942.93
2023-05-03T12:09:23.725Z,942.93
2023-05-03T12:10:25.994Z,943
2023-05-03T12:11:25.825Z,942.93
2023-05-03T12:12:35.233Z,942.96
2023-05-03T12:13:34.296Z,942.95
2023-05-03T12:14:34.065Z,942.98
2023-05-03T12:15:34.501Z,942.92
2023-05-03T12:16:35.409Z,942.93
2023-05-03T12:17:36.973Z,942.96
2023-05-03T12:18:36.265Z,942.91
2023-05-03T12:19:38.359Z,942.94
2023-05-03T12:21:43.225Z,942.95
2023-05-03T12:23:05.858Z,942.9
2023-05-03T12:24:06.650Z,942.9
2023-05-03T12:25:09.343Z,942.94
2023-05-03T12:26:09.798Z,942.88
2023-05-03T12:27:09.068Z,942.95
2023-05-03T12:29:11.982Z,942.9
2023-05-03T12:30:10.802Z,942.91
2023-05-03T12:31:12.967Z,942.89
2023-05-03T12:32:12.177Z,942.97
2023-05-03T12:33:12.931Z,942.9
2023-05-03T12:34:32.288Z,942.89
2023-05-03T12:36:14.888Z,942.87
2023-05-03T12:37:17.100Z,942.87
2023-05-03T12:38:16.396Z,942.87
2023-05-03T12:40:32.176Z,942.83
2023-05-03T12:41:27.248Z,942.81
2023-05-03T12:42:15.804Z,942.8
2023-05-03T12:43:16.387Z,942.78
2023-05-03T12:44:17.334Z,942.76
2023-05-03T12:45:20.808Z,942.78
2023-05-03T12:46:33.590Z,942.8
2023-05-03T12:47:26.571Z,942.78